createdAt,value
2023-02-09T00:00:00.000Z,17.94
2023-02-09T00:15:00.000Z,15.54
2023-02-09T00:30:00.000Z,13.85
2023-02-09T00:45:00.000Z,12.05
2023-02-09T01:00:00.000Z,10.73
2023-02-09T01:15:00.000Z,10.06
2023-02-09T01:30:00.000Z,9.31
2023-02-09T01:45:00.000Z,9.8
2023-02-09T02:00:00.000Z,9.09
2023-02-09T02:15:00.000Z,8.21
2023-02-09T02:30:00.000Z,9.63
2023-02-09T02:45:00.000Z,16.9
2023-02-09T03:00:00.000Z,23.22
2023-02-09T03:15:00.000Z,24.29
2023-02-09T03:30:00.000Z,25.59
2023-02-09T03:45:00.000Z,31.24
2023-02-09T04:00:00.000Z,27.04
2023-02-09T04:15:00.000Z,26.25
2023-02-09T04:30:00.000Z,27.16
2023-02-09T04:45:00.000Z,27.8
2023-02-09T05:00:00.000Z,36.22
2023-02-09T05:15:00.000Z,34.62
2023-02-09T05:30:00.000Z,34.62
2023-02-09T05:45:00.000Z,34.38
2023-02-09T06:00:00.000Z,34.93
2023-02-09T06:15:00.000Z,34.15
2023-02-09T06:30:00.000Z,34.54
2023-02-09T06:45:00.000Z,34.85
2023-02-09T07:00:00.000Z,30.52
2023-02-09T07:15:00.000Z,31.44
2023-02-09T07:30:00.000Z,25.28
2023-02-09T07:45:00.000Z,21.58
2023-02-09T08:00:00.000Z,20.81
2023-02-09T08:15:00.000Z,16.66
2023-02-09T08:30:00.000Z,17.21
2023-02-09T08:45:00.000Z,14.71
2023-02-09T09:00:00.000Z,11.53
2023-02-09T09:15:00.000Z,11.27
2023-02-09T09:30:00.000Z,11.08
2023-02-09T09:45:00.000Z,9.87
2023-02-09T10:00:00.000Z,8.73
2023-02-09T10:15:00.000Z,9.15
2023-02-09T10:30:00.000Z,8.61
2023-02-09T10:45:00.000Z,9.71
2023-02-09T11:00:00.000Z,9.75
2023-02-09T11:15:00.000Z,10.53
2023-02-09T11:30:00.000Z,10.14
2023-02-09T11:45:00.000Z,10.51
2023-02-09T12:00:00.000Z,10.67
2023-02-09T12:15:00.000Z,13.89
2023-02-09T12:30:00.000Z,14.65
2023-02-09T12:45:00.000Z,16.41
2023-02-09T13:00:00.000Z,15.84
2023-02-09T13:15:00.000Z,18.31
2023-02-09T13:30:00.000Z,19.41
2023-02-09T13:45:00.000Z,20.34
2023-02-09T14:00:00.000Z,18.99
2023-02-09T14:15:00.000Z,21.32
2023-02-09T14:30:00.000Z,24.33
2023-02-09T14:45:00.000Z,22.82
2023-02-09T15:00:00.000Z,23.46
2023-02-09T15:15:00.000Z,27.11
2023-02-09T15:30:00.000Z,25.72
2023-02-09T15:45:00.000Z,31.72
2023-02-09T16:00:00.000Z,35.48
2023-02-09T16:15:00.000Z,33.82
2023-02-09T16:30:00.000Z,29.82
2023-02-09T16:45:00.000Z,32.68
2023-02-09T17:00:00.000Z,34.49
2023-02-09T17:15:00.000Z,33.44
2023-02-09T17:30:00.000Z,32.51
2023-02-09T17:45:00.000Z,29.06
2023-02-09T18:00:00.000Z,25.95
2023-02-09T18:15:00.000Z,33.31
2023-02-09T18:30:00.000Z,33.61
2023-02-09T18:45:00.000Z,33.35
2023-02-09T19:00:00.000Z,26.52
2023-02-09T19:15:00.000Z,27.4
2023-02-09T19:30:00.000Z,27.84
2023-02-09T19:45:00.000Z,29.11
2023-02-09T20:00:00.000Z,23.41
2023-02-09T20:15:00.000Z,20.65
2023-02-09T20:30:00.000Z,18.41
2023-02-09T20:45:00.000Z,18.42
2023-02-09T21:00:00.000Z,18.4
2023-02-09T21:15:00.000Z,17.6
2023-02-09T21:30:00.000Z,17.49
2023-02-09T21:45:00.000Z,15.22
2023-02-09T22:00:00.000Z,14.51
2023-02-09T22:15:00.000Z,14.58
2023-02-09T22:30:00.000Z,14.46
2023-02-09T22:45:00.000Z,14.08
2023-02-09T23:00:00.000Z,14.08
2023-02-09T23:15:00.000Z,13.48
2023-02-09T23:30:00.000Z,13.2
2023-02-09T23:45:00.000Z,13.27
